createdAt,value
2022-09-27T07:55:44.217Z,97427.97
2022-09-27T07:58:22.484Z,97437.13
2022-09-27T08:00:58.040Z,97432.94
2022-09-27T08:18:53.261Z,97457.81
2022-09-27T08:21:59.821Z,97458.97
2022-09-27T08:31:03.612Z,97463.53
2022-09-27T08:33:39.149Z,97469.56
2022-09-27T08:36:12.310Z,97484.44
2022-09-27T08:38:49.758Z,97476.69
2022-09-27T08:44:33.075Z,97493.06
2022-09-27T08:47:18.363Z,97498.59
2022-09-27T08:49:53.822Z,97500.34
2022-09-27T08:52:27.724Z,97505.00
2022-09-27T08:55:00.059Z,97497.19
2022-09-27T08:57:28.043Z,97507.84
2022-09-27T09:00:02.735Z,97509.13
2022-09-27T09:02:31.166Z,97501.88
2022-09-27T09:05:04.057Z,97506.09
2022-09-27T09:07:50.021Z,97506.03
2022-09-27T09:10:50.661Z,97508.19
2022-09-27T09:13:29.128Z,97518.81
2022-09-27T09:16:11.718Z,97508.84
2022-09-27T09:18:58.389Z,97516.28
2022-09-27T09:21:48.661Z,97516.38
2022-09-27T09:24:27.347Z,97514.50
2022-09-27T09:27:04.573Z,97526.88
2022-09-27T09:29:54.167Z,97527.25
2022-09-27T09:32:34.645Z,97531.75
2022-09-27T09:35:03.724Z,97533.00
2022-09-27T09:37:39.003Z,97526.13
2022-09-27T09:40:19.124Z,97532.66
2022-09-27T09:42:55.763Z,97534.81
2022-09-27T09:45:28.680Z,97535.38
2022-09-27T09:48:04.455Z,97539.31
2022-09-27T09:50:38.631Z,97543.75
2022-09-27T09:53:16.132Z,97548.47
2022-09-27T09:55:49.549Z,97552.47
2022-09-27T09:58:24.999Z,97549.84
2022-09-27T10:01:06.434Z,97556.88
2022-09-27T10:03:34.328Z,97552.13
2022-09-27T10:06:02.810Z,97543.22
2022-09-27T10:08:30.730Z,97552.34
2022-09-27T10:11:22.881Z,97548.84
2022-09-27T10:13:59.891Z,97551.88
2022-09-27T10:16:29.224Z,97550.69
2022-09-27T10:19:03.913Z,97547.69
2022-09-27T10:21:34.861Z,97547.06
2022-09-27T10:24:13.698Z,97548.66
2022-09-27T10:27:03.880Z,97548.00
2022-09-27T10:29:39.554Z,97548.47
2022-09-27T10:32:22.868Z,97551.81
2022-09-27T10:34:52.285Z,97550.19
2022-09-27T10:37:23.734Z,97552.28
2022-09-27T10:40:25.946Z,97554.75
2022-09-27T10:42:54.751Z,97569.78
2022-09-27T10:45:31.673Z,97566.66
2022-09-27T10:48:07.711Z,97561.84
2022-09-27T10:50:59.553Z,97562.03
2022-09-27T10:53:37.898Z,97564.06
2022-09-27T10:56:23.121Z,97561.38
2022-09-27T10:58:52.001Z,97567.19
2022-09-27T11:01:23.234Z,97556.03
2022-09-27T11:04:20.377Z,97541.53
2022-09-27T11:06:49.761Z,97545.34
2022-09-27T11:09:23.664Z,97549.16
2022-09-27T11:12:07.342Z,97548.19
2022-09-27T11:14:35.617Z,97537.75
2022-09-27T11:17:17.737Z,97539.69
2022-09-27T11:20:22.638Z,97532.31
2022-09-27T11:23:19.346Z,97538.53
2022-09-27T11:26:03.913Z,97536.06
2022-09-27T11:28:43.266Z,97524.72
2022-09-27T11:31:34.714Z,97534.50
2022-09-27T11:34:33.461Z,97538.72
2022-09-27T11:37:14.044Z,97533.50
2022-09-27T11:39:56.211Z,97528.06
2022-09-27T11:42:48.382Z,97531.69
2022-09-27T11:45:50.532Z,97522.34
2022-09-27T11:48:33.549Z,97523.41
2022-09-27T11:51:16.677Z,97518.44
2022-09-27T11:54:00.167Z,97523.25
2022-09-27T11:56:41.321Z,97506.63
2022-09-27T11:59:34.885Z,97517.06
2022-09-27T12:02:13.510Z,97517.19
2022-09-27T12:05:01.905Z,97522.06
2022-09-27T12:07:42.622Z,97518.13
2022-09-27T12:10:16.966Z,97519.75
2022-09-27T12:12:52.035Z,97508.78
2022-09-27T12:15:22.378Z,97519.28
2022-09-27T12:17:53.502Z,97506.25
2022-09-27T12:20:24.566Z,97512.44
2022-09-27T12:23:00.639Z,97515.16
2022-09-27T12:26:01.258Z,97523.25
2022-09-27T12:28:40.836Z,97526.22
2022-09-27T12:31:29.054Z,97531.63
2022-09-27T12:34:13.356Z,97529.41
2022-09-27T12:36:48.696Z,97534.47
2022-09-27T12:39:23.545Z,97527.72
2022-09-27T12:42:02.711Z,97537.53
2022-09-27T12:44:44.784Z,97526.47
2022-09-27T12:47:29.399Z,97543.44
2022-09-27T12:50:04.784Z,97536.34
2022-09-27T12:52:37.521Z,97533.06
2022-09-27T12:55:37.401Z,97526.69
2022-09-27T12:58:22.826Z,97515.22
2022-09-27T13:00:59.258Z,97517.44
2022-09-27T13:03:43.453Z,97517.00
2022-09-27T13:06:39.014Z,97514.69
2022-09-27T13:09:49.679Z,97526.47
2022-09-27T13:12:23.492Z,97512.78
2022-09-27T13:15:01.173Z,97512.28
2022-09-27T13:17:54.464Z,97512.88
2022-09-27T13:20:46.390Z,97519.13
2022-09-27T13:23:57.919Z,97510.53
2022-09-27T13:26:51.627Z,97512.72
2022-09-27T13:29:34.053Z,97521.22
2022-09-27T13:32:17.438Z,97519.91
2022-09-27T13:35:20.399Z,97512.75
2022-09-27T13:37:59.491Z,97519.56
2022-09-27T13:40:40.875Z,97506.50
2022-09-27T13:43:33.358Z,97502.88
2022-09-27T13:46:09.678Z,97522.06
2022-09-27T13:48:51.498Z,97506.66
2022-09-27T13:51:32.553Z,97510.97
2022-09-27T13:54:06.610Z,97507.56
2022-09-27T13:56:56.385Z,97506.63
2022-09-27T13:59:30.975Z,97504.31
2022-09-27T14:02:26.601Z,97507.78
2022-09-27T14:04:57.791Z,97498.53
2022-09-27T14:07:32.907Z,97508.06
2022-09-27T14:10:06.856Z,97509.69
2022-09-27T14:12:42.350Z,97516.97
2022-09-27T14:15:20.389Z,97516.63
2022-09-27T14:17:49.880Z,97516.75
2022-09-27T14:20:34.323Z,97513.66
2022-09-27T14:23:05.121Z,97511.97
2022-09-27T14:25:45.372Z,97510.72
2022-09-27T14:28:26.746Z,97505.03
2022-09-27T14:31:17.850Z,97504.91
2022-09-27T14:34:09.282Z,97506.84
2022-09-27T14:36:57.731Z,97503.00
2022-09-27T14:39:32.551Z,97520.66
2022-09-27T14:42:06.561Z,97512.91
2022-09-27T14:44:36.145Z,97507.00
2022-09-27T14:47:11.179Z,97509.69
2022-09-27T14:49:49.442Z,97510.44
2022-09-27T14:52:21.442Z,97506.38
2022-09-27T15:04:04.588Z,97502.50
2022-09-27T15:06:34.515Z,97499.94
2022-09-27T15:09:02.576Z,97500.56
2022-09-27T15:11:33.317Z,97498.84
2022-09-27T15:14:05.603Z,97498.38
2022-09-27T15:16:33.853Z,97508.50
2022-09-27T15:19:03.998Z,97500.75
2022-09-27T15:21:35.340Z,97502.88
2022-09-27T15:24:03.626Z,97498.81
2022-09-27T15:26:37.776Z,97509.22
2022-09-27T15:29:06.097Z,97498.16
2022-09-27T15:31:35.956Z,97510.13
2022-09-27T15:34:06.090Z,97509.91
2022-09-27T15:36:58.283Z,97501.50
2022-09-27T15:39:32.828Z,97506.41
2022-09-27T15:42:09.880Z,97510.53
2022-09-27T15:44:47.671Z,97515.78
2022-09-27T15:47:41.431Z,97504.56
2022-09-27T15:50:35.138Z,97509.59
2022-09-27T15:53:06.739Z,97511.75
2022-09-27T15:55:40.551Z,97505.94
2022-09-27T15:58:15.558Z,97516.44
2022-09-27T16:00:52.799Z,97513.81
2022-09-27T16:03:20.888Z,97516.53
2022-09-27T16:05:48.699Z,97514.75
2022-09-27T16:08:18.740Z,97515.91
2022-09-27T16:10:51.391Z,97519.75
2022-09-27T16:13:19.437Z,97520.16
2022-09-27T16:15:49.282Z,97513.16
2022-09-27T16:18:17.306Z,97515.06
2022-09-27T16:20:45.301Z,97510.53
2022-09-27T16:23:13.136Z,97513.50
2022-09-27T16:25:42.254Z,97498.81
2022-09-27T16:28:12.052Z,97508.41
2022-09-27T16:30:39.883Z,97512.41
2022-09-27T16:33:07.654Z,97515.34
2022-09-27T16:35:35.437Z,97513.97
2022-09-27T16:38:03.294Z,97509.97
2022-09-27T16:40:32.037Z,97514.47
2022-09-27T16:43:01.347Z,97516.34
2022-09-27T16:45:34.126Z,97519.91
2022-09-27T16:48:02.415Z,97520.25
2022-09-27T16:50:47.834Z,97533.72
2022-09-27T16:53:16.051Z,97526.25
2022-09-27T16:55:43.829Z,97517.88
2022-09-27T16:58:13.039Z,97519.13
2022-09-27T17:00:42.087Z,97530.63
2022-09-27T17:03:10.311Z,97531.53
2022-09-27T17:05:38.088Z,97526.88
2022-09-27T17:08:06.030Z,97532.16
2022-09-27T17:10:35.724Z,97529.66
2022-09-27T17:13:03.630Z,97538.81
2022-09-27T17:15:32.955Z,97539.75
2022-09-27T17:18:00.799Z,97543.31
2022-09-27T17:20:28.595Z,97552.00
2022-09-27T17:22:57.059Z,97550.16
2022-09-27T17:25:24.921Z,97543.31
2022-09-27T17:27:52.719Z,97555.72
2022-09-27T17:30:20.949Z,97550.91
2022-09-27T17:32:50.033Z,97550.25
2022-09-27T17:35:18.060Z,97551.50
2022-09-27T17:37:46.187Z,97547.78
2022-09-27T17:40:14.498Z,97543.00
2022-09-27T17:42:42.350Z,97557.13
2022-09-27T17:45:10.936Z,97545.47
2022-09-27T17:47:56.335Z,97538.97
2022-09-27T17:50:25.485Z,97540.03
2022-09-27T17:52:53.779Z,97547.97
2022-09-27T17:55:22.461Z,97548.53
2022-09-27T17:57:51.891Z,97543.72
2022-09-27T18:00:20.631Z,97552.28
2022-09-27T18:02:48.841Z,97554.13
2022-09-27T18:05:18.369Z,97553.34
2022-09-27T18:07:47.585Z,97560.44
2022-09-27T18:10:16.720Z,97557.66
2022-09-27T18:12:44.544Z,97562.31
2022-09-27T18:15:12.623Z,97567.03
2022-09-27T18:17:40.692Z,97565.47
2022-09-27T18:20:09.327Z,97555.84
2022-09-27T18:38:28.726Z,97552.25
2022-09-27T19:59:35.465Z,97606.16
2022-09-27T20:02:03.983Z,97603.91
2022-09-27T20:11:06.187Z,97600.75
2022-09-27T20:13:45.359Z,97606.97
2022-09-27T20:16:32.392Z,97601.34
2022-09-27T20:19:02.675Z,97607.06
2022-09-27T20:24:42.981Z,97610.13
2022-09-27T20:27:11.837Z,97610.03
2022-09-27T20:29:41.232Z,97615.84
2022-09-27T20:32:26.693Z,97609.84
2022-09-27T20:38:11.663Z,97604.28
2022-09-27T20:40:57.650Z,97598.69
2022-09-27T20:46:21.264Z,97601.59
2022-09-27T20:48:53.214Z,97601.91
2022-09-27T20:51:32.866Z,97594.34
2022-09-27T20:54:03.414Z,97598.28
2022-09-27T20:56:33.732Z,97587.47
2022-09-27T21:02:02.420Z,97589.94
2022-09-27T21:04:31.622Z,97589.88
2022-09-27T21:10:13.629Z,97580.41
2022-09-27T21:15:44.676Z,97576.44
2022-09-27T21:18:14.722Z,97570.00
2022-09-27T21:20:45.059Z,97565.75
2022-09-27T21:23:12.896Z,97568.84
2022-09-27T21:25:43.021Z,97568.38
2022-09-27T21:28:10.856Z,97573.31
2022-09-27T21:30:38.729Z,97584.81
2022-09-27T21:33:06.560Z,97582.59
2022-09-27T21:38:36.885Z,97578.22
2022-09-27T21:44:06.192Z,97590.19
2022-09-27T21:46:34.449Z,97588.31
2022-09-27T21:49:05.313Z,97587.88
2022-09-27T21:51:36.469Z,97593.16
2022-09-27T21:54:06.753Z,97582.94
2022-09-27T21:56:37.466Z,97584.88
2022-09-27T22:02:09.453Z,97573.19
2022-09-27T22:10:44.461Z,97573.28
2022-09-27T22:13:12.870Z,97575.13
2022-09-27T22:15:46.814Z,97578.34
2022-09-27T22:18:16.310Z,97588.16
2022-09-27T22:20:44.317Z,97578.91
2022-09-27T22:23:12.220Z,97571.28
2022-09-27T22:25:40.217Z,97561.38
2022-09-27T22:28:08.583Z,97563.22
2022-09-27T22:30:50.479Z,97563.47
2022-09-27T22:33:19.978Z,97550.03
2022-09-27T22:35:48.191Z,97544.34
2022-09-27T22:38:48.697Z,97542.91
2022-09-27T22:41:17.156Z,97559.94
2022-09-27T22:43:58.375Z,97549.00
2022-09-27T22:46:26.669Z,97541.16
2022-09-27T22:48:56.464Z,97546.94
2022-09-27T22:51:24.266Z,97540.44
2022-09-27T22:53:52.100Z,97527.91
2022-09-27T22:59:32.844Z,97536.41
2022-09-27T23:02:00.679Z,97519.41
2022-09-27T23:04:29.861Z,97513.84
2022-09-27T23:06:58.167Z,97506.53
2022-09-27T23:09:26.834Z,97507.81
2022-09-27T23:11:55.680Z,97500.97
2022-09-27T23:14:23.679Z,97497.50
2022-09-27T23:16:51.847Z,97489.97
2022-09-27T23:22:22.666Z,97481.38
2022-09-27T23:30:40.532Z,97470.94
2022-09-27T23:33:08.957Z,97473.47
2022-09-27T23:35:39.205Z,97471.06
2022-09-27T23:38:08.406Z,97464.78
2022-09-27T23:40:36.850Z,97456.56
2022-09-27T23:43:04.745Z,97461.63
2022-09-27T23:45:33.416Z,97455.75
2022-09-27T23:48:02.675Z,97443.53
2022-09-27T23:50:32.365Z,97447.28
2022-09-27T23:53:00.643Z,97427.97
2022-09-27T23:55:29.886Z,97429.25
2022-09-27T23:57:57.743Z,97425.19
